Weather at Mitta Mitta Airport

Public forecast

Using degrees Celsius for public forecast. Weather courtesy of forecast.io.

Closest aviation weather report (METAR) to Mitta Mitta Airport

Closest report is Albury Airport, 33.1 nm (61.3 km) NW. Retrieved 2020/10/20 05:00 UTC (6 minutes ago):

YMAY 200500Z AUTO 35007KT 310V030 9999 // SCT061 23/09 Q1014

Closest aviation forecast (TAF) to Mitta Mitta Airport

Closest forecast is Wangaratta Airport, 51.1 nm (94.7 km) W. Retrieved 2020-10-20 02:33 UTC (3 hours ago):

TAF YWGT 200119Z 2002/2014 01006KT CAVOK